Terminal Aerodrome Forecast
Issued by NWS

Home | Current Version | Previous Version | Text Only | Print | Product List | Glossary On
Versions: 1 2 3 4 5 6 7 8 9 10 11 12 13 14 15
608
FTUS41 KBTV 172320
TAFSLK
TAF
KSLK 172320Z 1800/1824 23009G15KT P6SM SCT200
     FM180200 23008G16KT P6SM BKN070 WS020/25040KT
     FM180800 24004KT P6SM OVC030
     FM181400 VRB03KT P6SM SCT040
     FM181800 23005KT P6SM FEW040=

USA.gov is the U.S. government's official web portal to all federal, state and local government web resources and services.